Bradford County (N27)
Towanda, PA
Field Elevation: 730
Lat: 41°44.40N  Long: 76°26.83W
CTAF/Unicom Freq: 123.0000
   
     For Weather-by-Phone, call (570) 265-1024
Weather Advisories
2/27/2015 22:35 Z
Altimeter 30.48" Hg
Wind 260° @ 5 KT
Gusts --
Visibility 10 SM
Ceiling --
Temperature -7° C (19° F)
Dewpoint -19° C (-2° F)
Relative Humidity 34%
Density Altitude --
Condensation Altitude 7,100 feet
Wind Chill -11° C (12° F)
  Wind and Runways
Indicated Runway = 23
History
 
 
More Info
All DigiWx sites map
NOAA Forecast
 
Airport IQ 5010
(LHV) Lock Haven
(PS81) Robert Packer Hospital
 
about DigiWx
 
FAA Disclaimer: The data displayed is for advisory purposes only and is not to be used for flight planning or operations. For official data, please call (570) 265-1024 to hear the current automated AWOS voice message.
  METAR N27 272235Z AUTO 26005KT 10SM M07/M19 A3048